createdAt,value
2022-09-17T00:03:28.631Z,8.83
2022-09-17T00:08:20.392Z,8.71
2022-09-17T00:13:12.226Z,8.63
2022-09-17T00:18:04.206Z,8.59
2022-09-17T00:22:55.901Z,8.52
2022-09-17T00:27:47.770Z,8.44
2022-09-17T00:32:39.794Z,8.33
2022-09-17T00:37:31.734Z,8.27
2022-09-17T00:42:23.599Z,8.23
2022-09-17T00:47:30.150Z,8.27
2022-09-17T00:52:40.092Z,8.21
2022-09-17T00:57:32.220Z,8.14
2022-09-17T01:02:25.101Z,8.14
2022-09-17T01:07:52.400Z,8.16
2022-09-17T01:13:11.133Z,8.17
2022-09-17T01:18:05.054Z,8.15
2022-09-17T01:23:34.107Z,8.17
2022-09-17T01:28:40.645Z,8.17
2022-09-17T01:33:47.229Z,8.24
2022-09-17T01:38:54.851Z,8.29
2022-09-17T01:43:59.014Z,8.33
2022-09-17T01:48:54.646Z,8.41
2022-09-17T01:53:54.166Z,8.47
2022-09-17T01:58:56.838Z,8.52
2022-09-17T02:04:14.899Z,8.57
2022-09-17T02:09:22.513Z,8.65
2022-09-17T02:14:19.067Z,8.72
2022-09-17T02:19:22.942Z,8.78
2022-09-17T02:24:21.161Z,8.84
2022-09-17T02:29:19.097Z,8.86
2022-09-17T02:34:11.514Z,8.82
2022-09-17T02:39:04.638Z,8.79
2022-09-17T02:44:03.943Z,8.74
2022-09-17T02:49:15.216Z,8.70
2022-09-17T02:54:28.086Z,8.67
2022-09-17T02:59:25.447Z,8.63
2022-09-17T03:04:20.252Z,8.57
2022-09-17T03:09:12.062Z,8.57
2022-09-17T03:14:04.518Z,8.52
2022-09-17T03:18:56.131Z,8.48
2022-09-17T03:23:48.154Z,8.47
2022-09-17T03:28:39.895Z,8.42
2022-09-17T03:33:32.371Z,8.38
2022-09-17T03:38:24.195Z,8.43
2022-09-17T03:43:16.460Z,8.45
2022-09-17T03:48:08.153Z,8.46
2022-09-17T03:52:59.818Z,8.45
2022-09-17T03:57:51.526Z,8.43
2022-09-17T04:02:43.791Z,8.35
2022-09-17T04:07:35.497Z,8.28
2022-09-17T04:12:27.074Z,8.19
2022-09-17T04:17:19.871Z,8.12
2022-09-17T04:22:11.530Z,8.02
2022-09-17T04:27:03.285Z,7.96
2022-09-17T04:31:54.833Z,7.88
2022-09-17T04:36:46.490Z,7.82
2022-09-17T04:41:38.145Z,7.80
2022-09-17T04:46:30.140Z,7.76
2022-09-17T04:51:21.797Z,7.68
2022-09-17T04:56:13.466Z,7.62
2022-09-17T05:01:05.391Z,7.55
2022-09-17T05:05:57.174Z,7.50
2022-09-17T05:10:51.267Z,7.43
2022-09-17T05:15:42.932Z,7.37
2022-09-17T05:20:34.642Z,7.32
2022-09-17T05:25:26.429Z,7.26
2022-09-17T05:30:18.381Z,7.21
2022-09-17T05:35:10.960Z,7.16
2022-09-17T05:40:07.483Z,7.11
2022-09-17T05:44:59.152Z,7.03
2022-09-17T05:49:50.865Z,6.99
2022-09-17T05:54:43.329Z,6.95
2022-09-17T05:59:36.073Z,6.91
2022-09-17T06:04:29.639Z,6.90
2022-09-17T06:09:25.076Z,6.87
2022-09-17T06:14:16.776Z,6.83
2022-09-17T06:19:08.355Z,6.82
2022-09-17T06:24:00.948Z,6.81
2022-09-17T06:28:52.637Z,6.82
2022-09-17T06:33:44.391Z,6.85
2022-09-17T06:38:36.468Z,7.01
2022-09-17T06:43:28.674Z,7.55
2022-09-17T06:48:21.023Z,8.18
2022-09-17T06:53:12.700Z,9.22
2022-09-17T06:58:04.299Z,10.20
2022-09-17T07:03:00.821Z,10.91
2022-09-17T07:07:53.041Z,11.17
2022-09-17T07:12:49.698Z,11.45
2022-09-17T07:17:44.590Z,12.05
2022-09-17T07:22:36.515Z,12.78
2022-09-17T07:27:32.345Z,12.94
2022-09-17T07:32:24.555Z,13.04
2022-09-17T07:37:16.861Z,13.52
2022-09-17T07:42:09.546Z,14.16
2022-09-17T07:47:01.227Z,14.97
2022-09-17T07:51:54.844Z,15.81
2022-09-17T07:56:46.681Z,16.55
2022-09-17T08:01:38.439Z,17.22
2022-09-17T08:06:30.923Z,17.54
2022-09-17T08:11:51.916Z,18.17
2022-09-17T08:16:37.355Z,18.28
2022-09-17T08:21:29.002Z,18.41
2022-09-17T08:26:23.005Z,19.07
2022-09-17T08:31:16.871Z,19.50
2022-09-17T08:36:11.720Z,19.85
2022-09-17T08:41:22.207Z,20.33
2022-09-17T08:46:13.965Z,20.48
2022-09-17T08:51:28.688Z,20.18
2022-09-17T08:56:21.559Z,20.41
2022-09-17T09:01:28.576Z,20.91
2022-09-17T09:06:27.273Z,21.25
2022-09-17T09:11:27.541Z,21.51
2022-09-17T09:16:23.846Z,21.90
2022-09-17T09:21:26.932Z,22.25
2022-09-17T09:26:23.726Z,22.53
2022-09-17T09:32:03.183Z,22.80
2022-09-17T09:37:20.165Z,23.13
2022-09-17T09:42:16.140Z,23.30
2022-09-17T09:47:28.008Z,23.45
2022-09-17T09:52:41.465Z,23.59
2022-09-17T09:57:46.133Z,23.65
2022-09-17T10:02:37.879Z,23.80
2022-09-17T10:07:29.631Z,23.78
2022-09-17T10:12:21.776Z,23.96
2022-09-17T10:17:27.237Z,23.98
2022-09-17T10:22:20.313Z,23.80
2022-09-17T10:27:18.786Z,23.85
2022-09-17T10:32:16.863Z,23.97
2022-09-17T10:37:54.562Z,24.04
2022-09-17T10:42:50.848Z,23.84
2022-09-17T10:47:44.220Z,23.63
2022-09-17T10:52:40.961Z,23.61
2022-09-17T10:58:10.245Z,23.55
2022-09-17T11:03:13.975Z,23.09
2022-09-17T11:08:14.906Z,23.00
2022-09-17T11:13:29.353Z,22.99
2022-09-17T11:18:41.056Z,23.22
2022-09-17T11:24:10.643Z,23.39
2022-09-17T11:29:24.563Z,23.14
2022-09-17T11:34:27.186Z,23.06
2022-09-17T11:39:30.397Z,23.04
2022-09-17T11:44:37.001Z,22.96
2022-09-17T11:49:37.825Z,22.65
2022-09-17T11:54:37.650Z,22.32
2022-09-17T11:59:32.391Z,22.20
2022-09-17T12:04:27.119Z,22.01
2022-09-17T12:09:26.289Z,22.03
2022-09-17T12:14:29.146Z,21.89
2022-09-17T12:19:43.249Z,21.43
2022-09-17T12:24:35.039Z,21.13
2022-09-17T12:29:51.704Z,20.96
2022-09-17T12:35:19.232Z,20.58
2022-09-17T12:40:17.187Z,20.41
2022-09-17T12:45:32.954Z,20.13
2022-09-17T12:50:27.540Z,19.90
2022-09-17T12:55:46.771Z,19.66
2022-09-17T13:00:52.303Z,19.46
2022-09-17T13:06:30.808Z,19.33
2022-09-17T13:11:41.423Z,19.11
2022-09-17T13:16:45.294Z,18.89
2022-09-17T13:22:01.376Z,18.83
2022-09-17T13:26:55.054Z,18.81
2022-09-17T13:31:48.834Z,18.86
2022-09-17T13:36:47.779Z,18.82
2022-09-17T13:41:42.175Z,18.82
2022-09-17T13:46:36.395Z,18.66
2022-09-17T13:51:31.202Z,18.58
2022-09-17T13:56:34.964Z,18.57
2022-09-17T14:02:27.460Z,18.46
2022-09-17T14:07:23.596Z,18.53
2022-09-17T14:12:44.700Z,18.51
2022-09-17T14:17:53.443Z,18.35
2022-09-17T14:22:45.120Z,18.31
2022-09-17T14:28:00.503Z,18.16
2022-09-17T14:32:52.046Z,17.99
2022-09-17T14:37:47.605Z,17.89
2022-09-17T14:42:39.383Z,17.92
2022-09-17T14:47:31.313Z,17.84
2022-09-17T14:52:27.953Z,17.70
2022-09-17T14:57:29.719Z,17.63
2022-09-17T15:02:46.334Z,17.51
2022-09-17T15:07:41.820Z,17.46
2022-09-17T15:12:38.332Z,17.35
2022-09-17T15:17:31.100Z,17.33
2022-09-17T15:22:28.590Z,17.44
2022-09-17T15:27:34.266Z,17.56
2022-09-17T15:32:26.712Z,17.51
2022-09-17T15:37:21.094Z,17.34
2022-09-17T15:42:20.344Z,17.27
2022-09-17T15:47:51.063Z,17.33
2022-09-17T15:52:43.143Z,17.26
2022-09-17T15:57:35.149Z,17.07
2022-09-17T16:02:32.558Z,16.86
2022-09-17T16:07:30.053Z,16.73
2022-09-17T16:12:24.541Z,16.72
2022-09-17T16:17:26.419Z,16.57
2022-09-17T16:22:18.324Z,16.34
2022-09-17T16:27:32.191Z,16.21
2022-09-17T16:32:23.813Z,16.09
2022-09-17T16:37:15.481Z,16.03
2022-09-17T16:42:07.191Z,15.91
2022-09-17T16:46:58.984Z,15.92
2022-09-17T16:51:51.267Z,15.85
2022-09-17T16:56:42.901Z,15.84
2022-09-17T17:01:34.779Z,15.75
2022-09-17T17:06:27.023Z,15.72
2022-09-17T17:11:18.718Z,15.65
2022-09-17T17:16:12.022Z,15.51
2022-09-17T17:21:08.394Z,15.46
2022-09-17T17:26:00.570Z,15.46
2022-09-17T17:30:52.854Z,15.38
2022-09-17T17:35:46.296Z,15.26
2022-09-17T17:40:38.088Z,15.14
2022-09-17T17:45:29.738Z,15.05
2022-09-17T17:50:21.525Z,15.00
2022-09-17T17:55:13.606Z,14.94
2022-09-17T18:00:05.894Z,14.78
2022-09-17T18:05:02.068Z,14.65
2022-09-17T18:09:55.724Z,14.54
2022-09-17T18:14:47.704Z,14.43
2022-09-17T18:19:39.371Z,14.31
2022-09-17T18:24:30.991Z,14.17
2022-09-17T18:29:22.672Z,14.04
2022-09-17T18:34:16.441Z,13.96
2022-09-17T18:39:46.703Z,13.93
2022-09-17T18:44:23.271Z,13.87
2022-09-17T18:49:15.593Z,13.83
2022-09-17T18:54:07.545Z,13.74
2022-09-17T18:59:03.302Z,13.70
2022-09-17T19:03:59.047Z,13.68
2022-09-17T19:08:51.123Z,13.61
2022-09-17T19:13:45.255Z,13.57
2022-09-17T19:18:39.678Z,13.53
2022-09-17T19:23:31.821Z,13.53
2022-09-17T19:28:23.635Z,13.54
2022-09-17T19:33:15.375Z,13.56
2022-09-17T19:38:11.181Z,13.58
2022-09-17T19:43:04.874Z,13.60
2022-09-17T19:48:01.618Z,13.50
2022-09-17T19:52:53.359Z,13.45
2022-09-17T19:57:44.982Z,13.38
2022-09-17T20:02:36.679Z,13.33
2022-09-17T20:07:29.279Z,13.33
2022-09-17T20:12:20.891Z,13.33
2022-09-17T20:17:13.189Z,13.30
2022-09-17T20:22:04.886Z,13.30
2022-09-17T20:26:56.487Z,13.25
2022-09-17T20:31:48.235Z,13.23
2022-09-17T20:36:40.042Z,13.23
2022-09-17T20:41:31.945Z,13.23
2022-09-17T20:46:28.950Z,13.25
2022-09-17T20:51:24.122Z,13.26
2022-09-17T20:56:21.026Z,13.28
2022-09-17T21:01:17.890Z,13.20
2022-09-17T21:06:16.404Z,13.21
2022-09-17T21:11:08.119Z,13.17
2022-09-17T21:16:00.910Z,13.13
2022-09-17T21:20:53.183Z,13.09
2022-09-17T21:25:45.768Z,13.04
2022-09-17T21:30:37.467Z,13.00
2022-09-17T21:35:32.761Z,12.93
2022-09-17T21:40:24.529Z,12.88
2022-09-17T21:45:16.194Z,12.83
2022-09-17T21:50:08.620Z,12.76
2022-09-17T21:55:00.358Z,12.73
2022-09-17T21:59:51.998Z,12.69
2022-09-17T22:04:43.661Z,12.67
2022-09-17T22:09:35.322Z,12.66
2022-09-17T22:14:27.013Z,12.65
2022-09-17T22:19:20.533Z,12.64
2022-09-17T22:24:12.786Z,12.63
2022-09-17T22:29:07.368Z,12.60
2022-09-17T22:33:59.422Z,12.54
2022-09-17T22:38:57.252Z,12.54
2022-09-17T22:43:53.380Z,12.54
2022-09-17T22:48:45.602Z,12.52
2022-09-17T22:53:38.377Z,12.53
2022-09-17T22:58:31.155Z,12.51
2022-09-17T23:03:26.261Z,12.49
2022-09-17T23:08:18.097Z,12.47
2022-09-17T23:13:11.313Z,12.45
2022-09-17T23:18:04.726Z,12.43
2022-09-17T23:22:56.675Z,12.42
2022-09-17T23:27:48.420Z,12.37
2022-09-17T23:32:40.082Z,12.36
2022-09-17T23:37:31.858Z,12.30
2022-09-17T23:42:23.598Z,12.30
2022-09-17T23:47:15.260Z,12.29
2022-09-17T23:52:06.989Z,12.27
2022-09-17T23:56:58.676Z,12.26
